createdAt,value
2022-11-29T00:00:30.078Z,12.69
2022-11-29T00:02:56.622Z,12.69
2022-11-29T00:05:23.037Z,12.65
2022-11-29T00:07:49.411Z,12.60
2022-11-29T00:10:15.824Z,12.54
2022-11-29T00:12:42.189Z,12.47
2022-11-29T00:15:08.561Z,12.43
2022-11-29T00:17:34.899Z,12.53
2022-11-29T00:20:01.271Z,12.52
2022-11-29T00:22:27.961Z,12.43
2022-11-29T00:25:02.144Z,12.45
2022-11-29T00:27:28.861Z,12.50
2022-11-29T00:29:55.260Z,12.43
2022-11-29T00:32:21.732Z,12.39
2022-11-29T00:34:48.227Z,12.46
2022-11-29T00:37:14.601Z,12.52
2022-11-29T00:39:40.983Z,12.51
2022-11-29T00:42:08.117Z,12.56
2022-11-29T00:44:34.517Z,12.41
2022-11-29T00:47:00.853Z,12.48
2022-11-29T00:49:27.242Z,12.49
2022-11-29T00:51:53.590Z,12.45
2022-11-29T00:54:19.913Z,12.63
2022-11-29T00:56:46.252Z,12.63
2022-11-29T00:59:12.619Z,12.61
2022-11-29T01:01:39.035Z,12.59
2022-11-29T01:04:05.406Z,12.99
2022-11-29T01:06:31.792Z,12.92
2022-11-29T01:08:58.171Z,12.83
2022-11-29T01:11:24.592Z,12.75
2022-11-29T01:13:50.934Z,12.59
2022-11-29T01:16:17.286Z,12.47
2022-11-29T01:18:43.763Z,12.44
2022-11-29T01:21:10.147Z,12.59
2022-11-29T01:23:36.491Z,12.43
2022-11-29T01:26:02.823Z,12.31
2022-11-29T01:31:13.160Z,12.91
2022-11-29T01:33:39.583Z,13.19
2022-11-29T01:36:05.910Z,13.18
2022-11-29T01:38:32.242Z,13.25
2022-11-29T01:40:58.622Z,13.35
2022-11-29T01:43:25.005Z,13.43
2022-11-29T01:45:51.410Z,13.30
2022-11-29T01:48:17.813Z,13.41
2022-11-29T01:50:44.194Z,13.49
2022-11-29T01:53:10.565Z,13.47
2022-11-29T01:55:36.979Z,13.24
2022-11-29T01:58:12.474Z,12.93
2022-11-29T02:00:38.813Z,13.27
2022-11-29T02:03:05.134Z,13.24
2022-11-29T02:05:31.453Z,12.86
2022-11-29T02:07:57.886Z,12.97
2022-11-29T02:10:24.269Z,13.24
2022-11-29T02:12:50.633Z,13.31
2022-11-29T02:15:17.026Z,13.40
2022-11-29T02:17:43.362Z,13.11
2022-11-29T02:20:09.674Z,12.86
2022-11-29T02:22:36.041Z,13.08
2022-11-29T02:25:02.416Z,12.69
2022-11-29T02:27:28.751Z,12.67
2022-11-29T02:29:55.130Z,12.73
2022-11-29T02:32:21.475Z,12.99
2022-11-29T02:34:47.842Z,12.71
2022-11-29T02:37:14.256Z,12.75
2022-11-29T02:39:40.587Z,12.76
2022-11-29T02:42:06.969Z,12.77
2022-11-29T02:44:33.314Z,13.05
2022-11-29T02:46:59.721Z,13.26
2022-11-29T02:49:26.121Z,13.42
2022-11-29T02:51:52.504Z,13.44
2022-11-29T02:54:18.846Z,13.52
2022-11-29T02:56:45.213Z,13.58
2022-11-29T02:59:11.593Z,13.34
2022-11-29T03:01:37.963Z,13.28
2022-11-29T03:04:04.311Z,13.40
2022-11-29T03:06:30.631Z,13.41
2022-11-29T03:08:57.024Z,13.46
2022-11-29T03:11:23.387Z,13.46
2022-11-29T03:13:49.763Z,13.13
2022-11-29T03:16:16.147Z,13.14
2022-11-29T03:18:42.532Z,13.17
2022-11-29T03:21:08.888Z,13.64
2022-11-29T03:23:35.258Z,13.52
2022-11-29T03:26:01.645Z,13.48
2022-11-29T03:28:28.016Z,13.58
2022-11-29T03:30:54.481Z,13.51
2022-11-29T03:33:20.840Z,13.21
2022-11-29T03:35:47.162Z,13.32
2022-11-29T03:38:13.493Z,13.17
2022-11-29T03:40:39.876Z,13.14
2022-11-29T03:43:06.214Z,13.10
2022-11-29T03:45:32.538Z,13.07
2022-11-29T03:47:58.929Z,12.89
2022-11-29T03:50:25.270Z,13.23
2022-11-29T03:52:51.614Z,13.47
2022-11-29T03:55:17.998Z,13.36
2022-11-29T03:57:44.898Z,13.52
2022-11-29T04:00:11.291Z,13.21
2022-11-29T04:02:37.717Z,13.18
2022-11-29T04:05:04.116Z,13.09
2022-11-29T04:07:30.536Z,13.44
2022-11-29T04:09:56.890Z,13.55
2022-11-29T04:12:23.283Z,13.44
2022-11-29T04:14:49.638Z,13.49
2022-11-29T04:17:15.966Z,13.42
2022-11-29T04:19:42.311Z,13.43
2022-11-29T04:22:08.645Z,13.15
2022-11-29T04:24:34.978Z,13.07
2022-11-29T04:27:01.318Z,13.05
2022-11-29T04:29:27.681Z,13.08
2022-11-29T04:31:54.867Z,13.03
2022-11-29T04:34:21.195Z,12.97
2022-11-29T04:36:47.576Z,12.88
2022-11-29T04:39:13.967Z,12.80
2022-11-29T04:41:40.349Z,12.94
2022-11-29T04:44:06.702Z,13.04
2022-11-29T04:46:33.115Z,12.89
2022-11-29T04:48:59.506Z,13.13
2022-11-29T04:51:25.927Z,12.90
2022-11-29T04:53:52.310Z,13.08
2022-11-29T04:56:18.681Z,13.07
2022-11-29T04:58:45.028Z,13.18
2022-11-29T05:01:11.455Z,13.12
2022-11-29T05:03:37.863Z,12.89
2022-11-29T05:06:04.240Z,13.06
2022-11-29T05:08:30.619Z,12.70
2022-11-29T05:10:56.990Z,12.70
2022-11-29T05:13:23.330Z,12.91
2022-11-29T05:15:49.732Z,13.10
2022-11-29T05:18:16.135Z,13.17
2022-11-29T05:20:42.513Z,13.21
2022-11-29T05:23:08.888Z,13.47
2022-11-29T05:25:35.267Z,13.42
2022-11-29T05:28:04.483Z,13.50
2022-11-29T05:30:34.909Z,13.51
2022-11-29T05:33:01.246Z,13.26
2022-11-29T05:35:27.612Z,13.29
2022-11-29T05:37:54.007Z,13.31
2022-11-29T05:40:20.382Z,13.24
2022-11-29T05:42:46.760Z,13.05
2022-11-29T05:45:13.169Z,13.34
2022-11-29T05:47:39.520Z,13.26
2022-11-29T05:50:05.899Z,13.29
2022-11-29T05:52:32.302Z,13.28
2022-11-29T05:54:58.658Z,13.08
2022-11-29T05:57:24.980Z,13.25
2022-11-29T05:59:51.349Z,13.46
2022-11-29T06:02:17.773Z,13.38
2022-11-29T06:04:44.339Z,13.49
2022-11-29T06:07:10.901Z,13.53
2022-11-29T06:09:37.261Z,13.46
2022-11-29T06:12:03.629Z,13.59
2022-11-29T06:14:29.971Z,13.51
2022-11-29T06:16:56.298Z,13.49
2022-11-29T06:19:22.726Z,13.47
2022-11-29T06:21:49.081Z,13.46
2022-11-29T06:24:15.411Z,13.55
2022-11-29T06:26:41.751Z,13.37
2022-11-29T06:29:08.079Z,13.52
2022-11-29T06:31:34.516Z,13.45
2022-11-29T06:34:00.944Z,13.31
2022-11-29T06:36:27.286Z,13.17
2022-11-29T06:38:53.657Z,13.41
2022-11-29T06:41:20.061Z,13.52
2022-11-29T06:43:46.416Z,13.50
2022-11-29T06:46:13.026Z,13.30
2022-11-29T06:48:39.423Z,13.17
2022-11-29T06:51:05.760Z,13.15
2022-11-29T06:53:32.146Z,12.96
2022-11-29T06:55:58.501Z,13.10
2022-11-29T06:58:24.873Z,13.28
2022-11-29T07:00:51.239Z,13.45
2022-11-29T07:03:17.660Z,13.51
2022-11-29T07:05:44.037Z,13.38
2022-11-29T07:08:10.421Z,13.61
2022-11-29T07:10:36.812Z,13.65
2022-11-29T07:13:03.198Z,13.35
2022-11-29T07:15:29.578Z,13.50
2022-11-29T07:17:55.928Z,13.50
2022-11-29T07:20:22.335Z,13.65
2022-11-29T07:22:48.714Z,13.56
2022-11-29T07:25:15.094Z,13.26
2022-11-29T07:27:41.478Z,13.49
2022-11-29T07:30:07.884Z,13.42
2022-11-29T07:32:34.266Z,13.29
2022-11-29T07:35:00.631Z,12.92
2022-11-29T07:37:27.080Z,13.19
2022-11-29T07:39:53.586Z,13.47
2022-11-29T07:42:19.940Z,13.52
2022-11-29T07:44:46.494Z,13.58
2022-11-29T07:47:16.340Z,13.76
2022-11-29T07:49:42.727Z,13.74
2022-11-29T07:52:09.067Z,13.68
2022-11-29T07:54:35.834Z,13.67
2022-11-29T07:57:02.282Z,13.52
2022-11-29T07:59:28.623Z,13.71
2022-11-29T08:01:55.091Z,13.93
2022-11-29T08:04:21.469Z,13.91
2022-11-29T08:06:47.860Z,13.74
2022-11-29T08:09:14.234Z,13.66
2022-11-29T08:11:40.621Z,13.75
2022-11-29T08:14:06.974Z,13.88
2022-11-29T08:16:33.396Z,13.95
2022-11-29T08:18:59.818Z,13.66
2022-11-29T08:21:26.152Z,13.52
2022-11-29T08:23:52.492Z,13.77
2022-11-29T08:26:18.881Z,13.91
2022-11-29T08:28:45.217Z,14.00
2022-11-29T08:31:11.651Z,13.99
2022-11-29T08:33:38.018Z,14.08
2022-11-29T08:36:04.392Z,14.03
2022-11-29T08:38:30.773Z,13.93
2022-11-29T08:40:57.150Z,14.02
2022-11-29T08:43:23.496Z,14.11
2022-11-29T08:45:49.899Z,13.91
2022-11-29T08:48:16.323Z,14.14
2022-11-29T08:50:42.711Z,13.85
2022-11-29T08:53:09.107Z,14.08
2022-11-29T08:55:35.497Z,13.98
2022-11-29T08:58:01.880Z,13.88
2022-11-29T09:00:28.273Z,14.24
2022-11-29T09:02:54.619Z,14.17
2022-11-29T09:05:20.987Z,13.94
2022-11-29T09:07:47.387Z,14.08
2022-11-29T09:10:13.814Z,14.09
2022-11-29T09:12:40.203Z,14.13
2022-11-29T09:15:06.605Z,14.35
2022-11-29T09:17:32.993Z,14.29
2022-11-29T09:19:59.333Z,14.17
2022-11-29T09:22:25.663Z,14.05
2022-11-29T09:24:52.039Z,13.90
2022-11-29T09:27:18.416Z,14.12
2022-11-29T09:29:44.772Z,14.06
2022-11-29T09:32:11.148Z,14.19
2022-11-29T09:34:37.573Z,14.11
2022-11-29T09:37:03.972Z,14.32
2022-11-29T09:39:30.312Z,14.05
2022-11-29T09:41:56.646Z,14.17
2022-11-29T09:44:22.989Z,14.12
2022-11-29T09:46:52.258Z,14.35
2022-11-29T09:49:22.180Z,14.38
2022-11-29T09:51:48.542Z,14.50
2022-11-29T09:54:14.935Z,14.49
2022-11-29T09:56:41.330Z,14.15
2022-11-29T09:59:07.722Z,14.16
2022-11-29T10:01:34.106Z,14.41
2022-11-29T10:04:00.488Z,14.62
2022-11-29T10:06:26.868Z,14.62
2022-11-29T10:08:53.241Z,14.65
2022-11-29T10:11:19.611Z,14.65
2022-11-29T10:13:45.999Z,14.41
2022-11-29T10:16:12.428Z,14.54
2022-11-29T10:18:38.811Z,14.32
2022-11-29T10:21:05.205Z,14.09
2022-11-29T10:23:31.569Z,14.41
2022-11-29T10:25:57.958Z,14.46
2022-11-29T10:28:24.295Z,14.51
2022-11-29T10:30:50.710Z,14.41
2022-11-29T10:33:17.102Z,14.57
2022-11-29T10:35:43.443Z,14.79
2022-11-29T10:40:56.134Z,14.85
2022-11-29T10:43:22.556Z,14.77
2022-11-29T10:45:50.195Z,14.80
2022-11-29T10:48:16.741Z,14.88
2022-11-29T10:50:43.075Z,14.72
2022-11-29T10:53:09.451Z,14.78
2022-11-29T10:55:35.809Z,14.54
2022-11-29T10:58:02.183Z,14.54
2022-11-29T11:00:28.542Z,15.01
2022-11-29T11:02:56.006Z,15.18
2022-11-29T11:05:22.414Z,14.97
2022-11-29T11:07:48.799Z,14.95
2022-11-29T11:10:15.331Z,14.69
2022-11-29T11:12:41.760Z,15.03
2022-11-29T11:15:08.148Z,14.92
2022-11-29T11:17:34.531Z,14.89
2022-11-29T11:20:00.934Z,14.79
2022-11-29T11:22:27.395Z,14.80
2022-11-29T11:24:53.754Z,14.91
2022-11-29T11:27:20.130Z,14.66
2022-11-29T11:29:46.487Z,14.80
2022-11-29T11:32:12.879Z,14.47
2022-11-29T11:34:39.224Z,14.88
2022-11-29T11:37:05.555Z,14.54
2022-11-29T11:39:31.948Z,14.74
2022-11-29T11:41:58.385Z,14.60
2022-11-29T11:44:58.292Z,14.99
2022-11-29T11:47:11.123Z,14.84
2022-11-29T11:49:37.565Z,15.00
2022-11-29T11:52:03.960Z,14.37
2022-11-29T11:54:30.374Z,14.47
2022-11-29T11:56:56.728Z,14.71
2022-11-29T11:59:23.123Z,14.80
2022-11-29T12:01:49.515Z,14.70
2022-11-29T12:04:15.897Z,14.91
2022-11-29T12:06:42.286Z,14.69
2022-11-29T12:09:08.688Z,14.83
2022-11-29T12:11:35.040Z,14.82
2022-11-29T12:14:01.394Z,14.84
2022-11-29T12:16:27.716Z,14.56
2022-11-29T12:18:54.131Z,14.90
2022-11-29T12:21:20.475Z,14.92
2022-11-29T12:23:46.817Z,14.80
2022-11-29T12:26:19.295Z,14.79
2022-11-29T12:28:59.643Z,15.09
2022-11-29T12:31:26.067Z,14.82
2022-11-29T12:33:52.432Z,14.83
2022-11-29T12:36:18.837Z,14.71
2022-11-29T12:38:45.295Z,14.76
2022-11-29T12:41:11.686Z,14.60
2022-11-29T12:43:38.084Z,14.67
2022-11-29T12:46:04.530Z,14.90
2022-11-29T12:48:30.910Z,14.61
2022-11-29T12:50:57.286Z,14.40
2022-11-29T12:53:27.259Z,14.40
2022-11-29T12:55:54.115Z,14.47
2022-11-29T12:58:20.506Z,14.57
2022-11-29T13:00:46.882Z,14.28
2022-11-29T13:03:13.325Z,14.38
2022-11-29T13:05:39.755Z,14.40
2022-11-29T13:08:06.106Z,14.23
2022-11-29T13:10:32.470Z,14.21
2022-11-29T13:12:58.869Z,14.37
2022-11-29T13:15:25.222Z,14.33
2022-11-29T13:17:51.555Z,14.74
2022-11-29T13:20:17.889Z,14.68
2022-11-29T13:22:44.252Z,14.63
2022-11-29T13:25:10.606Z,14.57
2022-11-29T13:27:36.950Z,14.74
2022-11-29T13:30:03.281Z,14.95
2022-11-29T13:32:29.647Z,14.95
2022-11-29T13:34:55.993Z,14.71
2022-11-29T13:37:22.369Z,14.55
2022-11-29T13:39:48.723Z,14.30
2022-11-29T13:42:15.088Z,13.96
2022-11-29T13:44:41.500Z,13.97
2022-11-29T13:47:07.889Z,13.73
2022-11-29T13:49:34.266Z,13.58
2022-11-29T13:52:00.657Z,13.72
2022-11-29T13:54:27.048Z,13.62
2022-11-29T13:56:53.425Z,13.86
2022-11-29T13:59:19.835Z,13.94
2022-11-29T14:01:46.235Z,13.55
2022-11-29T14:04:12.589Z,13.75
2022-11-29T14:06:38.960Z,13.58
2022-11-29T14:09:20.655Z,14.03
2022-11-29T14:11:47.026Z,13.17
2022-11-29T14:14:13.402Z,13.22
2022-11-29T14:16:39.729Z,13.58
2022-11-29T14:19:06.097Z,13.68
2022-11-29T14:21:32.483Z,13.48
2022-11-29T14:23:58.848Z,13.57
2022-11-29T14:26:28.234Z,13.38
2022-11-29T14:28:55.039Z,13.12
2022-11-29T14:31:21.378Z,13.04
2022-11-29T14:33:47.785Z,13.24
2022-11-29T14:36:14.158Z,12.94
2022-11-29T14:38:40.517Z,12.89
2022-11-29T14:41:06.851Z,13.20
2022-11-29T14:43:33.226Z,13.24
2022-11-29T14:45:59.628Z,13.13
2022-11-29T14:48:25.977Z,13.52
2022-11-29T14:50:52.327Z,12.95
2022-11-29T14:53:18.698Z,13.13
2022-11-29T14:55:45.082Z,12.95
2022-11-29T14:58:11.461Z,12.65
2022-11-29T15:00:37.856Z,12.62
2022-11-29T15:03:04.232Z,12.88
2022-11-29T15:05:30.618Z,12.88
2022-11-29T15:07:56.994Z,13.12
2022-11-29T15:10:23.347Z,13.31
2022-11-29T15:12:49.717Z,13.32
2022-11-29T15:15:16.080Z,13.44
2022-11-29T15:17:42.418Z,13.43
2022-11-29T15:20:08.822Z,13.14
2022-11-29T15:22:35.207Z,13.11
2022-11-29T15:25:01.566Z,13.20
2022-11-29T15:27:27.897Z,13.36
2022-11-29T15:29:54.271Z,12.90
2022-11-29T15:32:20.620Z,13.01
2022-11-29T15:34:47.143Z,12.98
2022-11-29T15:37:13.680Z,12.98
2022-11-29T15:39:40.023Z,12.97
2022-11-29T15:42:06.355Z,13.24
2022-11-29T15:44:32.762Z,13.29
2022-11-29T15:46:59.139Z,12.85
2022-11-29T15:49:25.525Z,12.69
2022-11-29T15:51:51.866Z,12.44
2022-11-29T15:54:18.197Z,12.66
2022-11-29T15:56:44.594Z,12.93
2022-11-29T15:59:10.942Z,12.97
2022-11-29T16:01:37.292Z,12.85
2022-11-29T16:04:03.674Z,12.87
2022-11-29T16:06:30.033Z,12.84
2022-11-29T16:08:56.386Z,12.84
2022-11-29T16:11:25.091Z,12.31
2022-11-29T16:13:51.457Z,12.54
2022-11-29T16:16:17.881Z,12.83
2022-11-29T16:18:44.238Z,12.56
2022-11-29T16:21:10.597Z,12.26
2022-11-29T16:23:36.991Z,12.30
2022-11-29T16:26:03.379Z,12.46
2022-11-29T16:28:29.739Z,12.43
2022-11-29T16:30:56.114Z,12.26
2022-11-29T16:33:22.509Z,12.22
2022-11-29T16:35:48.912Z,12.16
2022-11-29T16:38:15.282Z,11.98
2022-11-29T16:40:41.658Z,12.06
2022-11-29T16:43:08.038Z,11.97
2022-11-29T16:45:34.520Z,12.04
2022-11-29T16:48:00.969Z,12.31
2022-11-29T16:50:27.351Z,11.79
2022-11-29T16:52:56.756Z,11.57
2022-11-29T16:55:23.583Z,11.78
2022-11-29T16:57:50.622Z,12.07
2022-11-29T17:00:17.052Z,12.19
2022-11-29T17:02:43.476Z,12.25
2022-11-29T17:05:09.922Z,12.10
2022-11-29T17:07:36.326Z,12.19
2022-11-29T17:10:02.736Z,12.03
2022-11-29T17:12:29.143Z,11.88
2022-11-29T17:14:55.482Z,12.24
2022-11-29T17:17:21.857Z,12.39
2022-11-29T17:19:48.185Z,12.31
2022-11-29T17:22:14.573Z,12.36
2022-11-29T17:24:46.182Z,12.48
2022-11-29T17:27:14.026Z,12.67
2022-11-29T17:29:40.359Z,12.44
2022-11-29T17:32:06.730Z,12.54
2022-11-29T17:34:33.107Z,12.44
2022-11-29T17:36:59.428Z,12.15
2022-11-29T17:39:25.802Z,12.11
2022-11-29T17:41:52.153Z,12.09
2022-11-29T17:44:18.490Z,11.35
2022-11-29T17:46:44.848Z,11.36
2022-11-29T17:49:11.188Z,11.21
2022-11-29T17:51:53.599Z,11.23
2022-11-29T17:54:20.336Z,11.20
2022-11-29T17:56:46.847Z,10.77
2022-11-29T17:59:13.184Z,11.02
2022-11-29T18:01:39.601Z,11.18
2022-11-29T18:04:05.999Z,11.00
2022-11-29T18:06:32.338Z,10.77
2022-11-29T18:08:58.675Z,10.63
2022-11-29T18:11:25.058Z,10.63
2022-11-29T18:13:51.451Z,10.56
2022-11-29T18:16:17.885Z,10.32
2022-11-29T18:18:44.285Z,10.46
2022-11-29T18:21:10.628Z,10.11
2022-11-29T18:23:37.029Z,10.01
2022-11-29T18:26:03.351Z,10.21
2022-11-29T18:28:29.687Z,10.21
2022-11-29T18:30:56.079Z,10.07
2022-11-29T18:33:22.419Z,10.12
2022-11-29T18:35:48.749Z,10.21
2022-11-29T18:38:16.324Z,10.16
2022-11-29T18:40:42.970Z,10.32
2022-11-29T18:43:09.317Z,10.27
2022-11-29T18:45:35.653Z,10.43
2022-11-29T18:48:01.987Z,10.46
2022-11-29T18:50:28.421Z,10.71
2022-11-29T18:52:54.797Z,10.94
2022-11-29T18:55:21.138Z,10.88
2022-11-29T18:57:47.515Z,11.13
2022-11-29T19:00:13.876Z,11.12
2022-11-29T19:02:40.345Z,11.13
2022-11-29T19:05:06.771Z,11.16
2022-11-29T19:07:33.207Z,11.25
2022-11-29T19:09:59.686Z,11.23
2022-11-29T19:12:26.068Z,11.27
2022-11-29T19:14:52.617Z,11.17
2022-11-29T19:17:19.220Z,11.40
2022-11-29T19:19:45.775Z,11.11
2022-11-29T19:22:12.267Z,10.98
2022-11-29T19:24:38.645Z,11.08
2022-11-29T19:27:05.012Z,11.14
2022-11-29T19:29:35.216Z,11.12
2022-11-29T19:32:04.767Z,11.00
2022-11-29T19:34:31.151Z,11.20
2022-11-29T19:36:57.516Z,10.80
2022-11-29T19:39:23.867Z,10.48
2022-11-29T19:41:50.232Z,10.48
2022-11-29T19:44:16.629Z,10.30
2022-11-29T19:46:42.971Z,10.26
2022-11-29T19:49:09.299Z,10.23
2022-11-29T19:51:35.855Z,10.31
2022-11-29T19:54:02.296Z,10.52
2022-11-29T19:56:28.631Z,10.73
2022-11-29T19:58:54.999Z,10.30
2022-11-29T20:01:21.440Z,10.36
2022-11-29T20:03:47.854Z,10.29
2022-11-29T20:06:14.383Z,10.42
2022-11-29T20:08:40.722Z,10.51
2022-11-29T20:11:07.053Z,10.50
2022-11-29T20:13:33.377Z,10.61
2022-11-29T20:15:59.726Z,10.78
2022-11-29T20:18:26.058Z,10.83
2022-11-29T20:20:52.520Z,10.93
2022-11-29T20:23:18.913Z,10.82
2022-11-29T20:25:45.260Z,10.68
2022-11-29T20:28:11.650Z,10.89
2022-11-29T20:30:38.025Z,10.92
2022-11-29T20:33:04.370Z,11.00
2022-11-29T20:35:30.756Z,11.01
2022-11-29T20:37:57.149Z,11.09
2022-11-29T20:40:23.482Z,11.06
2022-11-29T20:42:49.854Z,11.19
2022-11-29T20:45:16.242Z,10.98
2022-11-29T20:47:42.575Z,10.83
2022-11-29T20:50:08.905Z,10.75
2022-11-29T20:52:35.254Z,10.86
2022-11-29T20:55:01.585Z,11.18
2022-11-29T20:57:27.916Z,11.08
2022-11-29T20:59:54.284Z,11.35
2022-11-29T21:02:20.671Z,11.10
2022-11-29T21:04:47.223Z,11.35
2022-11-29T21:07:13.889Z,11.22
2022-11-29T21:09:40.227Z,10.93
2022-11-29T21:12:06.582Z,10.90
2022-11-29T21:14:32.920Z,10.93
2022-11-29T21:16:59.271Z,10.96
2022-11-29T21:19:25.641Z,11.16
2022-11-29T21:21:51.984Z,10.96
2022-11-29T21:24:18.368Z,11.11
2022-11-29T21:26:44.745Z,11.18
2022-11-29T21:29:11.158Z,11.26
2022-11-29T21:31:37.586Z,11.06
2022-11-29T21:34:03.983Z,11.29
2022-11-29T21:36:30.401Z,11.37
2022-11-29T21:38:59.730Z,11.47
2022-11-29T21:41:28.561Z,11.47
2022-11-29T21:44:10.238Z,11.04
2022-11-29T21:46:36.700Z,11.19
2022-11-29T21:49:03.174Z,11.36
2022-11-29T21:51:29.520Z,11.28
2022-11-29T21:53:55.952Z,11.56
2022-11-29T21:56:22.370Z,11.94
2022-11-29T21:58:48.813Z,11.79
2022-11-29T22:01:15.315Z,11.76
2022-11-29T22:03:41.973Z,11.43
2022-11-29T22:06:08.357Z,11.24
2022-11-29T22:08:34.749Z,11.19
2022-11-29T22:11:01.103Z,11.22
2022-11-29T22:13:27.438Z,11.11
2022-11-29T22:15:53.867Z,11.03
2022-11-29T22:18:20.288Z,10.95
2022-11-29T22:20:46.628Z,10.62
2022-11-29T22:23:12.963Z,10.85
2022-11-29T22:25:39.303Z,10.99
2022-11-29T22:28:05.652Z,10.97
2022-11-29T22:30:32.030Z,10.61
2022-11-29T22:32:58.370Z,10.13
2022-11-29T22:35:24.753Z,10.44
2022-11-29T22:37:51.128Z,10.32
2022-11-29T22:40:17.527Z,10.35
2022-11-29T22:42:43.915Z,10.27
2022-11-29T22:45:10.304Z,10.53
2022-11-29T22:47:36.694Z,10.16
2022-11-29T22:50:03.036Z,10.44
2022-11-29T22:52:29.512Z,10.40
2022-11-29T22:54:59.915Z,10.54
2022-11-29T22:57:29.355Z,10.63
2022-11-29T22:59:55.692Z,11.08
2022-11-29T23:02:22.121Z,11.06
2022-11-29T23:04:48.806Z,11.19
2022-11-29T23:07:15.357Z,11.25
2022-11-29T23:09:41.708Z,11.10
2022-11-29T23:12:08.031Z,11.36
2022-11-29T23:14:34.367Z,11.50
2022-11-29T23:17:00.734Z,10.98
2022-11-29T23:19:27.111Z,10.96
2022-11-29T23:21:53.447Z,11.00
2022-11-29T23:24:19.783Z,11.25
2022-11-29T23:26:46.149Z,11.08
2022-11-29T23:29:12.598Z,11.46
2022-11-29T23:31:39.029Z,11.35
2022-11-29T23:34:05.480Z,10.85
2022-11-29T23:36:31.935Z,11.00
2022-11-29T23:38:58.360Z,10.77
2022-11-29T23:41:24.743Z,10.81
2022-11-29T23:43:51.129Z,10.59
2022-11-29T23:46:17.567Z,10.80
2022-11-29T23:48:44.026Z,10.94
2022-11-29T23:51:10.413Z,10.87
2022-11-29T23:53:36.774Z,11.05
2022-11-29T23:56:03.102Z,10.90
2022-11-29T23:58:29.475Z,10.77
